createdAt,value
2022-12-01T00:01:28.253Z,29.38
2022-12-01T00:03:55.053Z,34.63
2022-12-01T00:06:28.256Z,31.98
2022-12-01T00:09:00.639Z,30.00
2022-12-01T00:11:27.863Z,33.60
2022-12-01T00:13:54.696Z,31.02
2022-12-01T00:16:28.438Z,33.35
2022-12-01T00:18:55.858Z,32.47
2022-12-01T00:21:24.489Z,30.65
2022-12-01T00:23:53.498Z,30.25
2022-12-01T00:26:21.643Z,34.72
2022-12-01T00:28:54.953Z,31.75
2022-12-01T00:31:22.431Z,31.30
2022-12-01T00:33:49.026Z,33.67
2022-12-01T00:36:15.624Z,34.08
2022-12-01T00:38:44.775Z,32.20
2022-12-01T00:41:12.018Z,33.13
2022-12-01T00:43:38.809Z,33.20
2022-12-01T00:46:05.719Z,31.67
2022-12-01T00:48:32.353Z,33.83
2022-12-01T00:50:58.964Z,33.65
2022-12-01T00:53:30.049Z,32.72
2022-12-01T00:55:56.990Z,33.78
2022-12-01T00:58:24.448Z,32.92
2022-12-01T01:00:58.852Z,32.53
2022-12-01T01:03:29.824Z,33.75
2022-12-01T01:05:56.429Z,32.75
2022-12-01T01:08:26.123Z,34.28
2022-12-01T01:10:52.675Z,34.72
2022-12-01T01:13:19.282Z,33.60
2022-12-01T01:15:48.827Z,33.10
2022-12-01T01:18:15.635Z,34.80
2022-12-01T01:20:42.549Z,34.15
2022-12-01T01:23:10.361Z,33.33
2022-12-01T01:25:36.954Z,37.47
2022-12-01T01:28:03.900Z,34.95
2022-12-01T01:30:30.666Z,31.63
2022-12-01T01:32:57.301Z,35.67
2022-12-01T01:35:23.872Z,34.92
2022-12-01T01:38:08.799Z,36.67
2022-12-01T01:43:01.935Z,34.60
2022-12-01T01:45:30.220Z,39.00
2022-12-01T01:47:59.781Z,34.30
2022-12-01T01:50:28.525Z,33.83
2022-12-01T01:53:01.360Z,36.97
2022-12-01T01:55:30.165Z,35.45
2022-12-01T01:57:57.394Z,34.55
2022-12-01T02:00:24.353Z,31.98
2022-12-01T02:02:51.778Z,39.70
2022-12-01T02:05:29.007Z,38.78
2022-12-01T02:07:59.423Z,40.55
2022-12-01T02:10:35.219Z,37.85
2022-12-01T02:13:20.957Z,36.05
2022-12-01T02:16:09.803Z,34.55
2022-12-01T02:19:00.565Z,36.17
2022-12-01T02:21:41.905Z,36.08
2022-12-01T02:24:20.436Z,38.83
2022-12-01T02:27:09.837Z,38.72
2022-12-01T02:29:48.795Z,36.72
2022-12-01T02:32:43.294Z,34.63
2022-12-01T02:35:42.487Z,36.97
2022-12-01T02:38:14.744Z,37.88
2022-12-01T02:40:52.293Z,37.35
2022-12-01T02:43:53.974Z,34.08
2022-12-01T02:46:46.779Z,40.08
2022-12-01T02:49:20.805Z,34.90
2022-12-01T02:51:57.570Z,35.78
2022-12-01T02:54:25.767Z,37.03
2022-12-01T02:56:54.541Z,38.45
2022-12-01T02:59:21.346Z,34.25
2022-12-01T03:01:57.268Z,39.67
2022-12-01T03:04:50.692Z,35.15
2022-12-01T03:07:26.080Z,37.70
2022-12-01T03:10:04.696Z,36.90
2022-12-01T03:12:48.568Z,36.25
2022-12-01T03:15:35.837Z,39.53
2022-12-01T03:18:09.104Z,37.88
2022-12-01T03:20:52.749Z,38.22
2022-12-01T03:23:23.778Z,35.50
2022-12-01T03:25:58.157Z,35.90
2022-12-01T03:28:30.717Z,36.63
2022-12-01T03:31:04.547Z,37.95
2022-12-01T03:33:43.051Z,38.53
2022-12-01T03:36:21.274Z,41.10
2022-12-01T03:38:54.654Z,36.58
2022-12-01T03:41:27.364Z,42.40
2022-12-01T03:44:04.047Z,39.22
2022-12-01T03:46:44.507Z,38.20
2022-12-01T03:49:11.432Z,38.45
2022-12-01T03:51:44.781Z,40.10
2022-12-01T03:54:17.453Z,40.97
2022-12-01T03:56:54.102Z,41.28
2022-12-01T03:59:25.477Z,39.33
2022-12-01T04:01:52.233Z,38.53
2022-12-01T04:04:22.060Z,35.35
2022-12-01T04:06:50.146Z,41.25
2022-12-01T04:09:17.592Z,39.15
2022-12-01T04:11:44.246Z,38.13
2022-12-01T04:14:16.987Z,36.20
2022-12-01T04:16:43.557Z,39.30
2022-12-01T04:19:12.037Z,41.45
2022-12-01T04:21:38.649Z,39.45
2022-12-01T04:24:05.510Z,39.10
2022-12-01T04:26:36.060Z,38.95
2022-12-01T04:29:05.554Z,37.05
2022-12-01T04:31:32.314Z,39.42
2022-12-01T04:34:00.080Z,41.50
2022-12-01T04:36:29.567Z,42.60
2022-12-01T04:38:56.214Z,37.08
2022-12-01T04:41:22.897Z,42.92
2022-12-01T04:43:49.491Z,39.80
2022-12-01T04:46:16.232Z,39.08
2022-12-01T04:48:42.862Z,40.78
2022-12-01T04:51:09.458Z,36.50
2022-12-01T04:53:36.663Z,39.65
2022-12-01T04:56:04.239Z,36.13
2022-12-01T04:58:32.279Z,39.15
2022-12-01T05:01:10.916Z,39.22
2022-12-01T05:03:42.248Z,39.25
2022-12-01T05:06:14.720Z,40.45
2022-12-01T05:08:41.750Z,42.72
2022-12-01T05:11:09.640Z,38.90
2022-12-01T05:13:49.553Z,40.55
2022-12-01T05:16:28.345Z,40.58
2022-12-01T05:18:57.902Z,44.80
2022-12-01T05:21:24.688Z,39.80
2022-12-01T05:23:51.294Z,40.25
2022-12-01T05:26:17.908Z,39.97
2022-12-01T05:28:44.485Z,40.00
2022-12-01T05:31:11.120Z,41.95
2022-12-01T05:33:37.963Z,41.28
2022-12-01T05:36:04.820Z,36.03
2022-12-01T05:38:31.458Z,40.40
2022-12-01T05:41:00.937Z,39.30
2022-12-01T05:43:29.536Z,41.03
2022-12-01T05:45:57.285Z,42.47
2022-12-01T05:48:25.499Z,39.00
2022-12-01T05:50:52.513Z,42.08
2022-12-01T05:53:23.384Z,39.40
2022-12-01T05:55:54.389Z,38.63
2022-12-01T05:58:23.965Z,42.72
2022-12-01T06:00:50.633Z,38.85
2022-12-01T06:03:17.239Z,41.47
2022-12-01T06:05:43.877Z,37.88
2022-12-01T06:08:10.516Z,36.20
2022-12-01T06:10:37.087Z,43.95
2022-12-01T06:13:03.735Z,41.75
2022-12-01T06:15:30.352Z,39.25
2022-12-01T06:17:59.591Z,38.55
2022-12-01T06:20:26.402Z,39.05
2022-12-01T06:22:53.002Z,38.30
2022-12-01T06:25:19.565Z,40.15
2022-12-01T06:27:46.194Z,41.83
2022-12-01T06:30:13.141Z,41.95
2022-12-01T06:32:40.499Z,44.20
2022-12-01T06:35:07.684Z,38.90
2022-12-01T06:37:34.217Z,40.97
2022-12-01T06:40:00.810Z,38.72
2022-12-01T06:42:30.136Z,40.47
2022-12-01T06:44:56.742Z,40.30
2022-12-01T06:47:23.731Z,41.72
2022-12-01T06:49:51.198Z,36.65
2022-12-01T06:52:18.095Z,38.97
2022-12-01T06:54:48.268Z,41.75
2022-12-01T06:57:15.165Z,37.03
2022-12-01T06:59:42.136Z,38.50
2022-12-01T07:02:11.355Z,37.30
2022-12-01T07:04:38.061Z,39.05
2022-12-01T07:07:05.980Z,41.25
2022-12-01T07:09:32.604Z,42.92
2022-12-01T07:12:01.536Z,39.42
2022-12-01T07:14:28.193Z,42.92
2022-12-01T07:16:55.282Z,43.60
2022-12-01T07:19:22.177Z,40.33
2022-12-01T07:21:49.289Z,45.60
2022-12-01T07:24:16.182Z,44.42
2022-12-01T07:26:46.402Z,44.28
2022-12-01T07:29:13.038Z,42.55
2022-12-01T07:31:39.604Z,42.45
2022-12-01T07:34:08.230Z,41.22
2022-12-01T07:36:34.833Z,43.58
2022-12-01T07:39:09.144Z,42.30
2022-12-01T07:41:36.171Z,42.85
2022-12-01T07:44:03.046Z,43.38
2022-12-01T07:46:29.947Z,45.88
2022-12-01T07:48:57.310Z,43.05
2022-12-01T07:51:26.190Z,40.30
2022-12-01T07:53:53.759Z,41.38
2022-12-01T07:56:22.248Z,44.60
2022-12-01T07:58:49.280Z,43.10
2022-12-01T08:01:19.275Z,39.38
2022-12-01T08:03:46.146Z,42.67
2022-12-01T08:06:13.492Z,41.15
2022-12-01T08:08:41.773Z,41.10
2022-12-01T08:11:18.188Z,41.22
2022-12-01T08:13:45.253Z,41.28
2022-12-01T08:16:19.179Z,40.28
2022-12-01T08:18:46.129Z,38.65
2022-12-01T08:21:16.823Z,39.42
2022-12-01T08:23:43.892Z,42.10
2022-12-01T08:26:16.588Z,36.97
2022-12-01T08:28:44.190Z,38.35
2022-12-01T08:31:18.986Z,42.20
2022-12-01T08:33:47.072Z,39.22
2022-12-01T08:36:18.788Z,36.10
2022-12-01T08:38:46.657Z,39.38
2022-12-01T08:41:14.214Z,38.22
2022-12-01T08:43:57.379Z,37.30
2022-12-01T08:46:26.069Z,36.60
2022-12-01T08:48:54.288Z,38.60
2022-12-01T08:51:20.934Z,37.20
2022-12-01T08:53:49.509Z,37.10
2022-12-01T08:56:32.259Z,42.70
2022-12-01T08:58:59.677Z,39.60
2022-12-01T09:01:26.714Z,35.45
2022-12-01T09:03:53.808Z,42.22
2022-12-01T09:06:20.654Z,38.60
2022-12-01T09:08:47.745Z,39.50
2022-12-01T09:11:19.409Z,37.28
2022-12-01T09:13:53.040Z,38.53
2022-12-01T09:16:21.710Z,40.45
2022-12-01T09:18:48.671Z,43.40
2022-12-01T09:21:18.456Z,46.53
2022-12-01T09:23:45.345Z,41.55
2022-12-01T09:26:14.268Z,42.83
2022-12-01T09:28:41.010Z,45.00
2022-12-01T09:31:10.529Z,38.10
2022-12-01T09:33:37.405Z,43.60
2022-12-01T09:36:06.219Z,39.78
2022-12-01T09:38:34.768Z,40.30
2022-12-01T09:41:05.812Z,40.88
2022-12-01T09:43:47.814Z,40.85
2022-12-01T09:46:21.714Z,45.17
2022-12-01T09:48:51.414Z,43.30
2022-12-01T09:51:28.388Z,43.25
2022-12-01T09:53:59.146Z,41.42
2022-12-01T09:56:36.449Z,42.50
2022-12-01T09:59:06.992Z,41.08
2022-12-01T10:01:38.378Z,41.70
2022-12-01T10:04:12.603Z,41.90
2022-12-01T10:06:48.481Z,43.45
2022-12-01T10:09:52.791Z,40.17
2022-12-01T10:12:25.208Z,43.22
2022-12-01T10:15:00.783Z,44.55
2022-12-01T10:17:45.566Z,44.38
2022-12-01T10:20:30.391Z,42.45
2022-12-01T10:25:48.267Z,43.05
2022-12-01T10:28:44.018Z,41.72
2022-12-01T10:31:44.291Z,39.72
2022-12-01T10:34:23.180Z,39.00
2022-12-01T10:39:36.823Z,41.90
2022-12-01T10:42:15.415Z,36.35
2022-12-01T10:44:43.073Z,39.85
2022-12-01T10:47:18.711Z,42.53
2022-12-01T10:49:45.368Z,37.17
2022-12-01T10:52:49.998Z,37.50
2022-12-01T10:55:29.230Z,37.60
2022-12-01T10:57:58.068Z,38.35
2022-12-01T11:01:00.720Z,36.92
2022-12-01T11:03:23.705Z,38.03
2022-12-01T11:05:53.689Z,36.38
2022-12-01T11:09:05.319Z,35.30
2022-12-01T11:11:41.569Z,34.85
2022-12-01T11:14:25.266Z,33.58
2022-12-01T11:16:52.872Z,34.42
2022-12-01T11:19:29.015Z,36.63
2022-12-01T11:21:58.232Z,38.63
2022-12-01T11:24:43.376Z,37.75
2022-12-01T11:27:15.137Z,41.22
2022-12-01T11:29:42.481Z,39.60
2022-12-01T11:32:30.318Z,36.83
2022-12-01T11:35:01.178Z,39.30
2022-12-01T11:37:36.737Z,40.38
2022-12-01T11:40:20.824Z,41.45
2022-12-01T11:42:53.072Z,37.73
2022-12-01T11:45:22.433Z,38.30
2022-12-01T11:48:21.111Z,38.65
2022-12-01T11:51:02.625Z,33.75
2022-12-01T11:53:35.716Z,37.25
2022-12-01T11:56:25.506Z,38.47
2022-12-01T11:59:13.955Z,38.05
2022-12-01T12:02:02.416Z,39.50
2022-12-01T12:04:43.115Z,35.42
2022-12-01T12:07:49.350Z,37.80
2022-12-01T12:10:53.511Z,36.90
2022-12-01T12:20:32.862Z,36.25
2022-12-01T12:23:31.207Z,38.15
2022-12-01T12:29:59.420Z,38.35
2022-12-01T12:33:08.312Z,37.33
2022-12-01T12:36:27.806Z,39.08
2022-12-01T12:39:39.497Z,33.50
2022-12-01T12:42:06.588Z,36.85
2022-12-01T12:44:42.600Z,36.13
2022-12-01T12:50:43.163Z,39.28
2022-12-01T12:53:18.053Z,36.33
2022-12-01T12:55:53.434Z,38.70
2022-12-01T12:59:10.610Z,35.15
2022-12-01T13:01:42.596Z,36.63
2022-12-01T13:04:32.214Z,38.22
2022-12-01T13:07:46.488Z,33.22
2022-12-01T13:10:48.010Z,36.45
2022-12-01T13:13:27.466Z,34.17
2022-12-01T13:15:56.035Z,33.92
2022-12-01T13:18:32.803Z,36.63
2022-12-01T13:21:07.177Z,36.17
2022-12-01T13:23:37.781Z,36.03
2022-12-01T13:26:07.070Z,34.75
2022-12-01T13:28:46.970Z,33.47
2022-12-01T13:31:28.897Z,33.60
2022-12-01T13:34:09.856Z,34.97
2022-12-01T13:36:46.790Z,34.95
2022-12-01T13:39:31.457Z,28.73
2022-12-01T13:42:02.509Z,34.60
2022-12-01T13:44:38.657Z,31.55
2022-12-01T13:47:05.328Z,34.95
2022-12-01T13:50:20.971Z,31.13
2022-12-01T13:52:50.813Z,34.33
2022-12-01T13:55:25.996Z,29.48
2022-12-01T13:57:58.437Z,25.88
2022-12-01T14:00:34.100Z,26.42
2022-12-01T14:03:13.147Z,25.30
2022-12-01T14:05:39.902Z,26.27
2022-12-01T14:08:22.673Z,25.55
2022-12-01T14:11:07.511Z,23.77
2022-12-01T14:13:53.743Z,25.67
2022-12-01T14:16:21.395Z,26.23
2022-12-01T14:18:53.834Z,26.88
2022-12-01T14:21:46.097Z,25.48
2022-12-01T14:24:32.195Z,29.02
2022-12-01T14:27:02.510Z,29.98
2022-12-01T14:29:41.517Z,32.35
2022-12-01T14:32:08.258Z,30.08
2022-12-01T14:34:39.868Z,28.88
2022-12-01T14:37:16.395Z,28.38
2022-12-01T14:39:46.443Z,32.63
2022-12-01T14:42:18.865Z,35.03
2022-12-01T14:44:51.471Z,28.58
2022-12-01T14:47:34.175Z,32.67
2022-12-01T14:50:01.891Z,28.20
2022-12-01T14:52:28.475Z,26.92
2022-12-01T14:54:59.610Z,31.52
2022-12-01T14:57:36.735Z,30.40
2022-12-01T15:00:09.471Z,30.33
2022-12-01T15:02:41.754Z,29.83
2022-12-01T15:05:13.960Z,29.00
2022-12-01T15:07:45.796Z,30.88
2022-12-01T15:10:38.580Z,29.13
2022-12-01T15:13:27.868Z,27.77
2022-12-01T15:15:59.049Z,31.42
2022-12-01T15:18:35.600Z,30.67
2022-12-01T15:21:28.265Z,28.30
2022-12-01T15:24:25.277Z,31.45
2022-12-01T15:27:03.270Z,32.78
2022-12-01T15:29:37.217Z,31.40
2022-12-01T15:32:08.643Z,34.78
2022-12-01T15:34:41.971Z,33.20
2022-12-01T15:37:28.701Z,34.47
2022-12-01T15:40:59.684Z,34.15
2022-12-01T15:43:44.391Z,34.20
2022-12-01T15:46:30.133Z,32.60
2022-12-01T15:49:25.689Z,35.90
2022-12-01T15:51:52.537Z,34.00
2022-12-01T15:54:27.645Z,35.70
2022-12-01T15:56:56.407Z,37.13
2022-12-01T15:59:28.562Z,33.08
2022-12-01T16:01:55.873Z,37.22
2022-12-01T16:04:31.563Z,39.47
2022-12-01T16:07:00.730Z,33.95
2022-12-01T16:09:37.766Z,38.28
2022-12-01T16:12:16.270Z,36.42
2022-12-01T16:15:09.034Z,39.40
2022-12-01T16:18:21.954Z,38.72
2022-12-01T16:20:51.368Z,39.08
2022-12-01T16:23:25.269Z,45.40
2022-12-01T16:26:01.595Z,38.17
2022-12-01T16:28:33.339Z,38.35
2022-12-01T16:31:00.095Z,43.03
2022-12-01T16:33:28.506Z,39.65
2022-12-01T16:35:55.631Z,43.10
2022-12-01T16:38:25.007Z,40.20
2022-12-01T16:40:57.098Z,38.83
2022-12-01T16:43:27.811Z,43.80
2022-12-01T16:46:10.312Z,40.63
2022-12-01T16:48:46.084Z,38.67
2022-12-01T16:51:29.299Z,40.47
2022-12-01T16:54:04.477Z,41.53
2022-12-01T16:56:31.226Z,41.38
2022-12-01T16:59:01.075Z,43.13
2022-12-01T17:01:29.843Z,44.45
2022-12-01T17:04:04.644Z,39.63
2022-12-01T17:06:34.076Z,40.20
2022-12-01T17:09:00.733Z,41.50
2022-12-01T17:11:32.546Z,40.05
2022-12-01T17:14:05.766Z,42.30
2022-12-01T17:16:35.012Z,38.45
2022-12-01T17:19:02.422Z,39.58
2022-12-01T17:21:32.466Z,40.28
2022-12-01T17:23:59.074Z,42.00
2022-12-01T17:26:27.151Z,40.15
2022-12-01T17:28:54.565Z,38.67
2022-12-01T17:31:21.501Z,41.60
2022-12-01T17:33:48.287Z,37.13
2022-12-01T17:36:15.641Z,42.58
2022-12-01T17:38:47.674Z,40.03
2022-12-01T17:41:19.242Z,43.03
2022-12-01T17:43:46.902Z,41.72
2022-12-01T17:46:14.720Z,38.20
2022-12-01T17:48:43.714Z,40.63
2022-12-01T17:51:11.724Z,41.20
2022-12-01T17:53:38.699Z,35.78
2022-12-01T17:56:10.248Z,39.95
2022-12-01T17:58:45.661Z,39.83
2022-12-01T18:01:18.096Z,39.78
2022-12-01T18:03:48.660Z,35.80
2022-12-01T18:06:16.750Z,43.05
2022-12-01T18:08:44.735Z,36.88
2022-12-01T18:11:14.007Z,39.28
2022-12-01T18:13:46.479Z,41.10
2022-12-01T18:16:16.678Z,42.63
2022-12-01T18:18:43.791Z,37.30
2022-12-01T18:21:17.686Z,38.63
2022-12-01T18:23:56.812Z,39.45
2022-12-01T18:26:24.277Z,37.92
2022-12-01T18:29:16.070Z,42.95
2022-12-01T18:31:43.402Z,32.45
2022-12-01T18:34:11.337Z,38.33
2022-12-01T18:36:42.706Z,36.90
2022-12-01T18:39:09.771Z,35.15
2022-12-01T18:41:37.176Z,38.55
2022-12-01T18:44:05.762Z,38.40
2022-12-01T18:46:32.701Z,35.60
2022-12-01T18:48:59.519Z,39.95
2022-12-01T18:51:27.194Z,39.22
2022-12-01T18:53:59.690Z,40.83
2022-12-01T18:56:26.811Z,38.60
2022-12-01T18:58:57.594Z,36.50
2022-12-01T19:01:46.074Z,38.17
2022-12-01T19:04:16.764Z,35.58
2022-12-01T19:06:45.650Z,36.65
2022-12-01T19:09:14.447Z,39.45
2022-12-01T19:11:42.178Z,35.83
2022-12-01T19:14:15.484Z,36.40
2022-12-01T19:16:42.407Z,36.28
2022-12-01T19:19:09.410Z,39.88
2022-12-01T19:21:41.665Z,38.53
2022-12-01T19:24:08.403Z,35.35
2022-12-01T19:26:35.132Z,34.55
2022-12-01T19:29:01.812Z,37.20
2022-12-01T19:31:28.659Z,40.90
2022-12-01T19:33:55.722Z,36.33
2022-12-01T19:36:25.692Z,34.97
2022-12-01T19:38:53.017Z,36.95
2022-12-01T19:41:20.792Z,32.42
2022-12-01T19:43:48.296Z,41.13
2022-12-01T19:46:17.570Z,39.42
2022-12-01T19:48:44.390Z,35.45
2022-12-01T19:51:26.929Z,34.30
2022-12-01T19:53:54.163Z,37.35
2022-12-01T19:56:21.453Z,36.70
2022-12-01T19:58:48.336Z,41.05
2022-12-01T20:01:19.421Z,42.42
2022-12-01T20:03:56.738Z,38.45
2022-12-01T20:06:26.152Z,39.58
2022-12-01T20:08:55.705Z,39.42
2022-12-01T20:11:24.006Z,40.50
2022-12-01T20:13:56.786Z,43.10
2022-12-01T20:16:27.056Z,42.05
2022-12-01T20:18:56.115Z,44.45
2022-12-01T20:21:29.810Z,43.30
2022-12-01T20:23:58.433Z,49.70
2022-12-01T20:26:30.441Z,50.85
2022-12-01T20:29:01.550Z,45.28
2022-12-01T20:31:32.448Z,42.75
2022-12-01T20:34:01.043Z,45.30
2022-12-01T20:36:27.881Z,46.00
2022-12-01T20:38:55.754Z,47.33
2022-12-01T20:41:23.327Z,46.30
2022-12-01T20:43:52.905Z,42.70
2022-12-01T20:46:19.702Z,45.80
2022-12-01T20:48:46.508Z,48.42
2022-12-01T20:51:14.484Z,52.92
2022-12-01T20:53:59.625Z,47.22
2022-12-01T20:56:30.939Z,44.22
2022-12-01T20:58:59.169Z,47.45
2022-12-01T21:01:26.155Z,44.55
2022-12-01T21:03:53.749Z,48.03
2022-12-01T21:06:26.839Z,44.40
2022-12-01T21:08:53.637Z,41.17
2022-12-01T21:11:29.862Z,46.45
2022-12-01T21:14:02.804Z,42.67
2022-12-01T21:16:32.644Z,49.65
2022-12-01T21:19:05.762Z,47.35
2022-12-01T21:21:38.919Z,49.33
2022-12-01T21:24:31.774Z,45.85
2022-12-01T21:27:08.596Z,46.80
2022-12-01T21:29:45.072Z,49.80
2022-12-01T21:32:15.169Z,48.63
2022-12-01T21:34:42.454Z,47.78
2022-12-01T21:37:24.001Z,47.42
2022-12-01T21:39:52.340Z,48.00
2022-12-01T21:42:22.288Z,48.20
2022-12-01T21:44:49.659Z,51.47
2022-12-01T21:47:24.044Z,49.90
2022-12-01T21:49:57.448Z,46.53
2022-12-01T21:52:40.003Z,46.67
2022-12-01T21:55:33.307Z,48.60
2022-12-01T21:57:59.981Z,45.28
2022-12-01T22:00:26.790Z,53.55
2022-12-01T22:03:17.921Z,50.25
2022-12-01T22:06:07.177Z,48.83
2022-12-01T22:08:40.203Z,49.83
2022-12-01T22:11:16.668Z,49.63
2022-12-01T22:13:46.363Z,44.72
2022-12-01T22:16:25.784Z,48.88
2022-12-01T22:18:55.644Z,51.20
2022-12-01T22:21:22.338Z,49.50
2022-12-01T22:24:22.925Z,50.28
2022-12-01T22:27:13.991Z,51.53
2022-12-01T22:29:49.949Z,47.33
2022-12-01T22:32:16.563Z,53.78
2022-12-01T22:34:51.493Z,51.72
2022-12-01T22:37:36.534Z,50.05
2022-12-01T22:42:49.917Z,54.92
2022-12-01T22:45:24.506Z,47.17
2022-12-01T22:50:25.816Z,48.45
2022-12-01T22:52:54.118Z,48.42
2022-12-01T22:55:20.793Z,50.65
2022-12-01T22:57:47.445Z,48.35
2022-12-01T23:00:18.991Z,51.83
2022-12-01T23:02:53.640Z,47.45
2022-12-01T23:05:26.759Z,50.92
2022-12-01T23:07:54.990Z,50.95
2022-12-01T23:10:30.262Z,56.90
2022-12-01T23:13:01.017Z,52.25
2022-12-01T23:15:38.066Z,54.63
2022-12-01T23:18:29.009Z,54.88
2022-12-01T23:20:57.725Z,50.53
2022-12-01T23:23:28.729Z,48.72
2022-12-01T23:25:56.411Z,50.25
2022-12-01T23:28:23.524Z,55.03
2022-12-01T23:30:55.085Z,52.05
2022-12-01T23:33:23.083Z,57.83
2022-12-01T23:36:14.971Z,56.30
2022-12-01T23:38:46.872Z,57.42
2022-12-01T23:41:50.189Z,56.25
2022-12-01T23:44:21.166Z,57.97
2022-12-01T23:46:54.239Z,58.05
2022-12-01T23:49:24.800Z,55.55
2022-12-01T23:51:54.965Z,58.92
2022-12-01T23:54:30.565Z,55.05
2022-12-01T23:57:00.896Z,52.45
2022-12-01T23:59:31.137Z,56.05
